Airport View

Enter AWOS ICAO identifier for current METAR.

ex. KFNL

KVVV 181215Z AUTO 31023G29KT 4SM HZ M16/M18 A2993 RMK AO2

18 Jan 2020 12:26

Frequency: 119.225

Phone: 320-839-2363

Other Area AWOS: KAQP - KDXX - KMOX - KETH

TAF KATY 181120Z 1812/1912 31023G36KT 3/4SM -SN BLSN VV020 TEMPO 1812/1816 1/4SM BLSN FM181600 30025G38KT 3SM BLSN BKN040 FM190000 31021G30KT P6SM FEW070 FM190700 31017G23KT P6SM FEW050